Time;durP1;ratioP1;P1;durP2;ratioP2;P2;SDS_P1;SDS_P2;PMS_P1;PMS_P2;Temp;Humidity;BMP_temperature;BMP_pressure;BME280_temperature;BME280_humidity;BME280_pressure;Samples;Min_cycle;Max_cycle;Signal;HPM_P1;HPM_P2
2021/06/09 00:01:56;;;;;;;23.17;17.20;;;;;;;16.39;100.00;97214.13;5014309;28;20186;-63
2021/06/09 00:04:21;;;;;;;24.65;17.23;;;;;;;16.35;100.00;97218.31;5032574;28;20187;-63
2021/06/09 00:06:47;;;;;;;23.02;17.15;;;;;;;16.37;100.00;97224.16;5014371;28;20225;-63
2021/06/09 00:09:12;;;;;;;19.75;16.58;;;;;;;16.27;100.00;97218.81;5014851;28;20244;-63
2021/06/09 00:11:38;;;;;;;20.23;16.52;;;;;;;16.20;100.00;97216.34;5031683;28;20202;-63
2021/06/09 00:14:05;;;;;;;17.27;14.52;;;;;;;16.14;100.00;97220.00;5032152;28;20206;-63
2021/06/09 00:16:32;;;;;;;16.45;14.35;;;;;;;16.13;100.00;97209.66;5013874;28;20697;-63
2021/06/09 00:18:58;;;;;;;18.02;15.15;;;;;;;16.21;100.00;97215.31;5032047;28;20202;-63
2021/06/09 00:21:23;;;;;;;18.08;15.32;;;;;;;16.14;100.00;97209.44;5031814;28;20187;-62
2021/06/09 00:23:48;;;;;;;18.33;15.70;;;;;;;16.20;100.00;97204.97;5031939;28;20197;-63
2021/06/09 00:26:17;;;;;;;17.95;15.50;;;;;;;16.14;100.00;97198.84;5031875;28;20194;-63
2021/06/09 00:28:42;;;;;;;17.67;14.88;;;;;;;16.08;100.00;97205.13;5031634;28;20186;-63
2021/06/09 00:31:08;;;;;;;16.05;14.35;;;;;;;16.11;100.00;97207.25;5031819;28;20236;-63
2021/06/09 00:33:34;;;;;;;17.70;14.50;;;;;;;16.13;100.00;97201.72;5009925;28;20234;-63
2021/06/09 00:36:00;;;;;;;16.25;14.52;;;;;;;16.16;100.00;97212.59;5011562;28;20185;-63
2021/06/09 00:38:28;;;;;;;18.38;15.00;;;;;;;16.26;100.00;97206.63;5012370;28;20628;-63
2021/06/09 00:40:55;;;;;;;16.70;13.82;;;;;;;16.13;100.00;97207.81;5011516;28;20254;-63
2021/06/09 00:43:23;;;;;;;17.50;15.60;;;;;;;16.15;100.00;97210.22;5011989;28;20183;-62
2021/06/09 00:45:57;;;;;;;17.13;15.25;;;;;;;16.19;100.00;97211.31;5011299;28;20222;-63
2021/06/09 00:48:28;;;;;;;17.55;15.65;;;;;;;16.16;100.00;97211.81;5010845;28;20183;-63
2021/06/09 00:50:55;;;;;;;17.83;15.88;;;;;;;16.23;100.00;97210.56;5010064;28;20187;-63
2021/06/09 00:53:58;;;;;;;19.10;16.63;;;;;;;16.16;100.00;97209.94;5009527;28;20290;-63
2021/06/09 00:56:13;;;;;;;22.05;16.45;;;;;;;16.13;100.00;97210.47;5009510;28;20196;-63
2021/06/09 00:58:41;;;;;;;19.42;16.58;;;;;;;16.10;100.00;97210.97;5011195;28;20187;-63
2021/06/09 01:01:08;;;;;;;21.38;15.85;;;;;;;16.06;100.00;97209.88;5011981;28;20302;-63
2021/06/09 01:03:35;;;;;;;19.02;15.88;;;;;;;16.11;100.00;97204.63;5011289;28;20250;-62
2021/06/09 01:06:03;;;;;;;19.27;15.20;;;;;;;16.20;100.00;97213.72;5011434;28;20187;-63
2021/06/09 01:08:38;;;;;;;16.15;14.40;;;;;;;16.13;100.00;97214.97;5011791;28;20214;-63
2021/06/09 01:11:12;;;;;;;20.35;15.63;;;;;;;16.17;100.00;97214.19;5011428;28;20587;-63
2021/06/09 01:13:37;;;;;;;16.98;14.45;;;;;;;16.26;100.00;97216.41;5011077;28;20276;-63
2021/06/09 01:16:03;;;;;;;22.30;18.15;;;;;;;16.31;100.00;97219.09;5011976;28;20186;-63
2021/06/09 01:18:29;;;;;;;18.75;16.42;;;;;;;16.25;100.00;97215.59;5011472;28;20226;-63
2021/06/09 01:20:56;;;;;;;19.75;16.40;;;;;;;16.28;100.00;97219.56;5010882;28;20175;-63
2021/06/09 01:23:21;;;;;;;19.80;15.98;;;;;;;16.20;100.00;97224.28;5003873;28;20187;-63
2021/06/09 01:25:48;;;;;;;21.52;15.65;;;;;;;16.20;100.00;97219.00;5010250;28;20187;-63
2021/06/09 01:28:14;;;;;;;16.45;14.38;;;;;;;16.27;100.00;97225.94;5011876;28;20270;-63
2021/06/09 01:30:39;;;;;;;17.00;15.20;;;;;;;16.21;100.00;97227.75;5010556;28;20195;-63
2021/06/09 01:33:06;;;;;;;19.00;14.85;;;;;;;16.21;100.00;97222.44;5015343;28;20256;-63
2021/06/09 01:35:32;;;;;;;18.50;14.70;;;;;;;16.13;100.00;97217.59;5030253;28;20183;-63
2021/06/09 01:37:58;;;;;;;17.05;13.98;;;;;;;16.15;100.00;97218.97;5030669;28;20562;-63
2021/06/09 01:40:25;;;;;;;17.38;14.95;;;;;;;16.11;100.00;97223.13;5030846;28;20225;-63
2021/06/09 01:42:52;;;;;;;17.60;14.95;;;;;;;16.00;100.00;97224.09;5030366;28;20190;-63
2021/06/09 01:45:21;;;;;;;15.73;13.85;;;;;;;16.06;100.00;97223.09;5030745;28;20277;-63
2021/06/09 01:47:47;;;;;;;18.02;14.43;;;;;;;16.15;100.00;97226.09;5030539;28;20201;-63
2021/06/09 01:50:14;;;;;;;19.42;14.57;;;;;;;16.30;100.00;97225.41;5031252;28;20183;-63
2021/06/09 01:52:40;;;;;;;18.83;15.40;;;;;;;16.37;100.00;97223.38;5030274;28;20194;-63
2021/06/09 01:55:09;;;;;;;18.02;14.73;;;;;;;16.11;100.00;97212.56;5030771;28;20257;-63
2021/06/09 01:57:34;;;;;;;18.63;14.38;;;;;;;16.12;100.00;97214.16;5030025;28;20179;-63
2021/06/09 02:00:01;;;;;;;20.20;15.32;;;;;;;16.11;100.00;97209.91;5030715;28;20187;-63
2021/06/09 02:02:27;;;;;;;17.10;14.85;;;;;;;16.05;100.00;97205.63;5013489;28;20182;-63
2021/06/09 02:04:53;;;;;;;16.05;13.68;;;;;;;15.97;100.00;97202.66;5029700;28;20195;-62
2021/06/09 02:07:18;;;;;;;15.75;13.40;;;;;;;16.03;100.00;97204.28;5030802;28;20191;-63
2021/06/09 02:09:44;;;;;;;15.45;13.85;;;;;;;16.12;100.00;97208.06;5030061;28;20316;-63
2021/06/09 02:12:10;;;;;;;14.57;12.43;;;;;;;16.10;100.00;97195.13;5030711;28;20239;-63
2021/06/09 02:14:36;;;;;;;14.98;13.32;;;;;;;16.22;100.00;97192.28;5029943;28;20202;-63
2021/06/09 02:17:04;;;;;;;14.93;12.95;;;;;;;16.24;100.00;97195.47;5030562;28;20191;-62
2021/06/09 02:19:31;;;;;;;14.77;13.18;;;;;;;16.25;100.00;97194.44;5034359;28;20664;-63
2021/06/09 02:21:57;;;;;;;15.80;13.50;;;;;;;16.25;100.00;97191.78;5033721;28;20296;-63
2021/06/09 02:24:23;;;;;;;14.70;12.55;;;;;;;16.25;100.00;97194.44;5034870;28;20190;-63
2021/06/09 02:26:49;;;;;;;17.65;13.77;;;;;;;16.22;100.00;97195.72;5033174;28;20562;-63
2021/06/09 02:29:15;;;;;;;16.80;13.40;;;;;;;16.22;100.00;97187.78;5016655;28;20210;-63
2021/06/09 02:31:51;;;;;;;15.63;13.27;;;;;;;16.18;100.00;97196.50;5033479;28;20190;-63
2021/06/09 02:34:19;;;;;;;17.02;14.65;;;;;;;16.26;100.00;97189.94;5034089;28;20225;-63
2021/06/09 02:36:48;;;;;;;15.93;12.68;;;;;;;16.28;100.00;97196.56;5033367;28;20201;-64
2021/06/09 02:39:14;;;;;;;15.48;13.50;;;;;;;16.23;100.00;97199.16;5034037;28;20643;-64
2021/06/09 02:41:39;;;;;;;14.68;13.18;;;;;;;16.22;100.00;97198.38;5033126;28;20197;-64
2021/06/09 02:44:06;;;;;;;15.48;13.45;;;;;;;16.28;100.00;97195.75;5034676;28;20261;-64
2021/06/09 02:46:36;;;;;;;13.45;11.70;;;;;;;16.25;100.00;97193.63;5034369;28;20221;-64
2021/06/09 02:49:08;;;;;;;15.02;12.10;;;;;;;16.23;100.00;97191.22;5034514;28;20186;-63
2021/06/09 02:51:43;;;;;;;15.35;13.32;;;;;;;16.30;100.00;97183.09;5016071;28;20255;-63
2021/06/09 02:54:26;;;;;;;17.60;13.60;;;;;;;16.23;100.00;97183.31;5034357;28;20593;-63
2021/06/09 02:57:22;;;;;;;16.70;13.65;;;;;;;16.24;100.00;97187.53;5033488;28;20232;-63
2021/06/09 03:00:19;;;;;;;18.40;14.10;;;;;;;16.08;100.00;97194.56;5029178;28;20262;-63
2021/06/09 03:02:44;;;;;;;14.85;13.23;;;;;;;15.69;100.00;97193.91;5033438;28;20201;-62
2021/06/09 03:05:14;;;;;;;15.02;13.20;;;;;;;15.66;100.00;97193.63;5033569;28;20186;-63
2021/06/09 03:07:53;;;;;;;16.08;12.32;;;;;;;15.59;100.00;97191.19;5033400;28;20194;-63
2021/06/09 03:10:27;;;;;;;20.08;13.02;;;;;;;15.56;100.00;97193.50;5033852;28;20174;-63
2021/06/09 03:13:03;;;;;;;17.83;14.07;;;;;;;15.59;100.00;97188.53;5032752;28;20640;-63
2021/06/09 03:15:49;;;;;;;19.75;13.05;;;;;;;15.48;100.00;97186.78;5001659;28;20273;-63
2021/06/09 03:18:19;;;;;;;15.07;13.30;;;;;;;15.65;100.00;97190.19;5016042;28;20174;-63
2021/06/09 03:21:01;;;;;;;14.55;12.60;;;;;;;15.67;100.00;97193.34;5032877;28;20206;-63
2021/06/09 03:24:13;;;;;;;14.98;12.82;;;;;;;15.66;100.00;97191.00;5015815;28;20174;-63
2021/06/09 03:26:54;;;;;;;13.53;12.13;;;;;;;15.71;100.00;97188.41;5019078;28;20198;-63
2021/06/09 03:29:51;;;;;;;15.30;13.13;;;;;;;15.83;100.00;97193.53;5033157;28;20258;-63
2021/06/09 03:32:27;;;;;;;14.20;12.25;;;;;;;15.78;100.00;97191.63;5028220;28;20233;-63
2021/06/09 03:35:17;;;;;;;15.13;12.70;;;;;;;15.70;100.00;97179.66;5032197;28;20304;-63
2021/06/09 03:37:47;;;;;;;15.15;13.52;;;;;;;15.75;100.00;97187.63;5032474;28;20181;-63
2021/06/09 03:40:19;;;;;;;15.90;12.68;;;;;;;15.78;100.00;97192.41;5033203;28;20266;-63
2021/06/09 03:42:48;;;;;;;15.07;11.88;;;;;;;15.78;100.00;97189.78;5032260;28;20638;-63
2021/06/09 03:45:15;;;;;;;14.17;12.30;;;;;;;15.70;100.00;97194.72;5033337;28;20193;-63
2021/06/09 03:47:42;;;;;;;15.52;12.90;;;;;;;15.66;100.00;97193.63;5014945;28;20182;-63
2021/06/09 03:50:09;;;;;;;16.90;13.80;;;;;;;15.80;100.00;97195.63;5015473;28;20182;-63
2021/06/09 03:52:37;;;;;;;17.63;13.45;;;;;;;15.97;100.00;97195.50;5033328;28;20200;-63
2021/06/09 03:55:06;;;;;;;16.38;13.50;;;;;;;15.92;100.00;97192.81;5032765;28;20214;-63
2021/06/09 03:57:32;;;;;;;17.98;13.75;;;;;;;15.79;100.00;97194.00;5033368;28;20182;-63
2021/06/09 03:59:59;;;;;;;15.75;13.05;;;;;;;16.03;100.00;97194.50;5032433;28;20186;-63
2021/06/09 04:02:26;;;;;;;18.02;14.02;;;;;;;16.02;100.00;97198.19;5032875;28;20193;-63
2021/06/09 04:04:57;;;;;;;16.33;13.65;;;;;;;16.09;100.00;97195.34;5031457;28;20198;-63
2021/06/09 04:07:23;;;;;;;14.55;12.38;;;;;;;16.11;100.00;97201.19;5021556;28;20197;-63
2021/06/09 04:09:51;;;;;;;15.95;13.15;;;;;;;16.01;100.00;97196.59;5031141;28;20177;-63
2021/06/09 04:12:20;;;;;;;16.30;13.63;;;;;;;16.09;100.00;97198.81;5032589;28;20193;-63
2021/06/09 04:14:48;;;;;;;16.23;13.55;;;;;;;16.08;100.00;97201.69;5031626;28;20213;-62
2021/06/09 04:17:19;;;;;;;15.27;12.85;;;;;;;16.09;100.00;97195.34;5014217;28;20191;-63
2021/06/09 04:19:48;;;;;;;14.32;11.60;;;;;;;16.20;100.00;97205.78;5031695;28;20190;-63
2021/06/09 04:22:13;;;;;;;15.52;12.18;;;;;;;16.24;100.00;97198.13;5032853;28;20216;-63
2021/06/09 04:24:40;;;;;;;14.60;12.27;;;;;;;16.35;100.00;97199.81;5031407;28;20702;-63
2021/06/09 04:27:09;;;;;;;14.52;11.50;;;;;;;16.20;100.00;97203.13;5014910;28;20237;-63
2021/06/09 04:29:36;;;;;;;14.80;11.70;;;;;;;16.33;100.00;97199.25;5032112;28;20179;-63
2021/06/09 04:32:05;;;;;;;13.38;10.73;;;;;;;16.37;100.00;97212.78;5032156;28;20274;-63
2021/06/09 04:34:45;;;;;;;12.80;10.85;;;;;;;16.35;100.00;97212.22;5031411;28;20234;-63
2021/06/09 04:37:12;;;;;;;11.63;9.85;;;;;;;16.46;100.00;97213.91;5031908;28;20182;-63
2021/06/09 04:39:37;;;;;;;12.57;10.30;;;;;;;16.56;100.00;97204.19;5031747;28;20189;-62
2021/06/09 04:42:04;;;;;;;13.07;9.85;;;;;;;16.55;100.00;97204.47;5031205;28;20190;-64
2021/06/09 04:44:30;;;;;;;11.98;9.85;;;;;;;16.60;100.00;97207.19;5031927;28;20193;-63
2021/06/09 04:46:55;;;;;;;10.38;9.38;;;;;;;16.73;100.00;97203.28;5030917;28;20753;-63
2021/06/09 04:49:29;;;;;;;10.18;9.10;;;;;;;16.74;100.00;97208.31;5031664;28;20186;-63
2021/06/09 04:51:57;;;;;;;10.38;9.27;;;;;;;16.76;100.00;97205.44;5013533;28;20176;-63
2021/06/09 04:54:22;;;;;;;10.20;9.10;;;;;;;16.79;100.00;97205.69;5023976;28;20202;-63
2021/06/09 04:56:48;;;;;;;11.70;10.50;;;;;;;16.90;100.00;97202.06;5013484;28;20273;-63
2021/06/09 04:59:13;;;;;;;11.52;10.25;;;;;;;16.99;100.00;97212.97;5031903;28;20186;-63
2021/06/09 05:01:38;;;;;;;11.52;10.02;;;;;;;17.05;100.00;97207.44;5013306;28;20260;-63
2021/06/09 05:04:05;;;;;;;13.52;11.02;;;;;;;17.06;100.00;97208.22;5031266;28;20674;-63
2021/06/09 05:06:30;;;;;;;12.18;10.52;;;;;;;17.17;100.00;97204.56;5031336;28;20182;-63
2021/06/09 05:08:55;;;;;;;11.88;10.32;;;;;;;17.21;100.00;97208.31;5030188;28;20270;-63
2021/06/09 05:11:34;;;;;;;12.52;10.90;;;;;;;17.30;100.00;97212.06;5031752;28;20213;-64
2021/06/09 05:14:03;;;;;;;11.55;9.70;;;;;;;17.36;100.00;97204.94;5030077;28;20206;-63
2021/06/09 05:16:33;;;;;;;12.27;10.13;;;;;;;17.60;100.00;97211.44;5027870;28;20644;-63
2021/06/09 05:19:01;;;;;;;13.13;10.27;;;;;;;17.72;100.00;97208.53;5030604;28;20186;-63
2021/06/09 05:21:31;;;;;;;11.35;10.00;;;;;;;17.82;100.00;97209.38;5031324;28;20201;-63
2021/06/09 05:23:58;;;;;;;10.27;9.18;;;;;;;17.96;98.67;97209.63;5029956;28;20183;-62
2021/06/09 05:26:24;;;;;;;10.13;8.80;;;;;;;17.97;97.61;97210.44;5016114;28;20179;-63
2021/06/09 05:29:06;;;;;;;10.80;9.70;;;;;;;18.08;97.30;97215.50;5030346;28;20193;-62
2021/06/09 05:31:37;;;;;;;10.40;9.30;;;;;;;18.18;97.00;97217.34;5031211;28;20175;-63
2021/06/09 05:34:05;;;;;;;9.95;8.98;;;;;;;18.35;96.32;97215.25;5030624;28;20321;-63
2021/06/09 05:36:32;;;;;;;11.65;10.10;;;;;;;18.41;95.66;97211.53;5030520;28;20590;-64
2021/06/09 05:38:58;;;;;;;11.90;10.55;;;;;;;18.63;94.53;97205.97;5030017;28;20183;-63
2021/06/09 05:41:25;;;;;;;10.40;9.30;;;;;;;18.65;94.45;97207.31;5030504;28;20190;-63
2021/06/09 05:43:51;;;;;;;10.82;9.73;;;;;;;18.68;94.15;97209.41;5030391;28;20198;-63
2021/06/09 05:46:17;;;;;;;11.85;10.65;;;;;;;18.74;93.58;97204.09;5013080;28;20252;-63
2021/06/09 05:48:44;;;;;;;10.52;9.43;;;;;;;18.66;94.65;97200.94;5030142;28;20183;-61
2021/06/09 05:51:11;;;;;;;11.23;10.00;;;;;;;19.03;93.23;97203.25;5030415;28;20591;-61
2021/06/09 05:53:38;;;;;;;11.20;10.00;;;;;;;19.11;92.57;97207.22;5030623;28;20659;-62
2021/06/09 05:56:04;;;;;;;11.40;9.80;;;;;;;19.00;91.85;97211.75;5030573;28;20276;-62
2021/06/09 05:58:29;;;;;;;10.98;9.85;;;;;;;19.05;91.06;97200.34;5031408;28;20187;-63
2021/06/09 06:01:00;;;;;;;10.63;9.52;;;;;;;19.10;90.85;97200.31;5030026;28;20787;-61
2021/06/09 06:03:26;;;;;;;9.93;8.68;;;;;;;19.32;91.22;97199.97;5013270;28;20186;-62
2021/06/09 06:06:04;;;;;;;10.85;9.75;;;;;;;19.51;88.33;97204.44;5012389;28;20277;-63
2021/06/09 06:08:35;;;;;;;11.73;10.13;;;;;;;18.91;91.14;97210.72;5026453;28;20170;-62
2021/06/09 06:11:22;;;;;;;11.95;10.32;;;;;;;19.01;91.41;97207.22;5029598;28;20186;-62
2021/06/09 06:13:47;;;;;;;9.50;8.50;;;;;;;19.27;91.19;97214.09;5029706;28;20225;-62
2021/06/09 06:16:18;;;;;;;11.05;9.05;;;;;;;19.05;91.90;97214.41;5030618;28;20654;-62
2021/06/09 06:18:45;;;;;;;12.13;9.52;;;;;;;19.18;90.83;97218.34;5029346;28;20186;-62
2021/06/09 06:21:14;;;;;;;11.93;10.50;;;;;;;19.50;89.58;97218.78;5030339;28;20221;-63
2021/06/09 06:23:40;;;;;;;12.60;9.43;;;;;;;20.00;86.64;97216.16;5029354;28;20191;-62
2021/06/09 06:26:06;;;;;;;10.68;9.57;;;;;;;20.46;84.18;97216.63;5029737;28;20236;-62
2021/06/09 06:28:33;;;;;;;10.10;9.10;;;;;;;20.57;83.10;97215.47;5030308;28;20240;-62
2021/06/09 06:30:59;;;;;;;10.18;9.00;;;;;;;20.98;81.29;97219.34;5029236;28;20608;-62
2021/06/09 06:33:26;;;;;;;11.13;9.90;;;;;;;20.97;80.46;97225.75;5029470;28;20227;-62
2021/06/09 06:35:52;;;;;;;12.02;9.32;;;;;;;21.11;80.07;97217.91;5029179;28;20182;-61
2021/06/09 06:38:19;;;;;;;9.93;8.93;;;;;;;21.16;79.82;97220.53;5030211;28;20730;-62
2021/06/09 06:40:48;;;;;;;8.70;7.88;;;;;;;21.33;79.29;97222.75;5012087;28;20198;-61
2021/06/09 06:43:14;;;;;;;10.60;8.90;;;;;;;21.56;78.07;97224.63;5030681;28;20289;-61
2021/06/09 06:45:40;;;;;;;10.13;8.75;;;;;;;21.61;77.52;97221.06;5012521;28;20275;-61
2021/06/09 06:48:06;;;;;;;9.75;8.75;;;;;;;21.65;76.57;97224.75;5030096;28;20678;-61
2021/06/09 06:50:32;;;;;;;10.00;8.93;;;;;;;21.53;77.17;97225.97;5012590;28;20250;-60
2021/06/09 06:52:57;;;;;;;9.77;8.77;;;;;;;21.31;78.35;97231.03;5028877;28;20186;-61
2021/06/09 06:55:23;;;;;;;11.00;9.57;;;;;;;21.48;77.42;97225.22;5027992;28;20233;-62
2021/06/09 06:57:50;;;;;;;13.50;10.38;;;;;;;20.98;77.76;97231.88;5021788;28;20190;-62
2021/06/09 07:00:19;;;;;;;12.27;9.65;;;;;;;20.99;79.65;97231.59;5021748;28;20199;-62
2021/06/09 07:02:57;;;;;;;10.50;9.32;;;;;;;21.06;79.16;97232.09;5026874;28;20573;-62
2021/06/09 07:05:26;;;;;;;12.35;9.73;;;;;;;20.58;80.13;97225.84;5032276;28;20174;-62
2021/06/09 07:07:52;;;;;;;11.25;10.00;;;;;;;20.83;79.31;97227.50;5032175;28;20174;-61
2021/06/09 07:10:18;;;;;;;11.15;9.95;;;;;;;20.66;81.08;97229.78;5032465;28;20194;-62
2021/06/09 07:12:45;;;;;;;12.23;10.18;;;;;;;20.56;81.92;97227.22;5032324;28;20186;-61
2021/06/09 07:15:16;;;;;;;11.27;10.07;;;;;;;20.22;83.95;97230.66;5032269;28;20209;-62
2021/06/09 07:17:46;;;;;;;11.27;10.00;;;;;;;20.60;82.19;97230.91;5014687;28;20553;-62
2021/06/09 07:20:13;;;;;;;14.80;10.40;;;;;;;20.37;82.36;97232.41;5032831;28;20213;-62
2021/06/09 07:22:40;;;;;;;12.25;10.15;;;;;;;20.25;83.97;97231.94;5032636;28;20222;-62
2021/06/09 07:25:08;;;;;;;11.75;9.95;;;;;;;20.68;82.18;97235.63;5031619;28;20659;-62
2021/06/09 07:27:39;;;;;;;11.10;9.68;;;;;;;20.90;80.56;97232.50;5028501;28;20252;-62
2021/06/09 07:30:10;;;;;;;12.45;10.18;;;;;;;19.86;85.78;97235.38;5014907;28;20289;-61
2021/06/09 07:32:40;;;;;;;12.23;10.65;;;;;;;20.04;86.28;97238.47;5029559;28;20316;-62
2021/06/09 07:35:07;;;;;;;11.68;9.75;;;;;;;20.87;82.55;97233.84;5010174;28;20198;-62
2021/06/09 07:37:40;;;;;;;10.77;8.90;;;;;;;21.26;80.11;97238.28;5033262;28;20201;-62
2021/06/09 07:40:08;;;;;;;11.52;9.10;;;;;;;21.64;78.46;97236.50;5031909;28;20183;-62
2021/06/09 07:42:34;;;;;;;10.95;9.35;;;;;;;21.96;76.13;97232.09;5024540;28;20186;-62
2021/06/09 07:45:08;;;;;;;11.60;10.23;;;;;;;21.56;77.10;97244.09;5031725;28;20768;-62
2021/06/09 07:47:35;;;;;;;12.60;9.73;;;;;;;21.94;75.17;97244.13;5032233;28;20281;-62
2021/06/09 07:50:06;;;;;;;12.95;9.52;;;;;;;21.90;75.87;97238.53;5032232;28;20259;-62
2021/06/09 07:52:35;;;;;;;12.13;9.65;;;;;;;22.14;74.21;97245.72;5014512;28;20277;-62
2021/06/09 07:55:01;;;;;;;11.15;9.98;;;;;;;22.12;73.44;97240.69;5031535;28;20211;-61
2021/06/09 07:57:33;;;;;;;12.50;10.05;;;;;;;23.02;70.29;97248.34;5032171;28;20175;-62
2021/06/09 08:00:00;;;;;;;13.20;10.98;;;;;;;22.61;71.30;97247.44;5031479;28;20586;-61
2021/06/09 08:02:26;;;;;;;14.05;11.98;;;;;;;22.55;70.92;97254.72;5024394;28;20207;-61
2021/06/09 08:04:52;;;;;;;14.10;12.45;;;;;;;21.93;74.00;97246.00;5031479;28;20194;-61
2021/06/09 08:07:18;;;;;;;16.75;12.73;;;;;;;21.91;73.92;97250.81;5014740;28;20186;-62
2021/06/09 08:09:44;;;;;;;12.45;11.13;;;;;;;22.57;72.66;97257.13;5013912;28;20201;-63
2021/06/09 08:12:10;;;;;;;15.10;13.07;;;;;;;22.33;71.26;97260.69;5031969;28;20242;-62
2021/06/09 08:14:35;;;;;;;14.65;12.57;;;;;;;22.67;70.81;97248.94;5013574;28;20212;-62
2021/06/09 08:17:01;;;;;;;13.90;12.35;;;;;;;22.66;71.17;97250.00;5012288;28;20823;-62
2021/06/09 08:19:28;;;;;;;14.75;12.20;;;;;;;23.35;68.96;97256.31;5014465;28;20186;-62
2021/06/09 08:21:53;;;;;;;14.85;12.75;;;;;;;23.92;66.24;97244.19;5031229;28;20190;-62
2021/06/09 08:24:19;;;;;;;18.08;13.25;;;;;;;23.52;66.79;97251.97;5031324;28;20186;-62
2021/06/09 08:26:46;;;;;;;15.70;12.00;;;;;;;23.82;66.08;97255.13;5030080;28;20640;-62
2021/06/09 08:29:12;;;;;;;15.40;11.90;;;;;;;24.02;65.86;97244.75;5030590;28;20183;-62
2021/06/09 08:31:37;;;;;;;12.27;10.35;;;;;;;24.08;65.92;97255.34;5031514;28;20182;-62
2021/06/09 08:34:05;;;;;;;11.70;10.30;;;;;;;24.75;64.53;97258.91;5030412;28;20242;-62
2021/06/09 08:36:32;;;;;;;12.07;9.63;;;;;;;25.01;62.49;97254.53;5030945;28;20265;-62
2021/06/09 08:38:59;;;;;;;12.98;11.07;;;;;;;24.68;62.38;97251.31;5030796;28;20187;-62
2021/06/09 08:41:29;;;;;;;13.18;11.07;;;;;;;24.66;62.23;97255.38;5031532;28;20192;-62
2021/06/09 08:43:57;;;;;;;15.52;11.35;;;;;;;24.50;62.62;97254.16;5020814;28;20248;-62
2021/06/09 08:46:23;;;;;;;10.48;9.35;;;;;;;24.96;61.55;97256.56;5030647;28;20187;-62
2021/06/09 08:48:48;;;;;;;13.70;11.73;;;;;;;24.94;61.09;97256.84;5030603;28;20237;-62
2021/06/09 08:51:17;;;;;;;14.38;12.75;;;;;;;23.92;65.26;97254.91;5031828;28;20194;-62
2021/06/09 08:53:45;;;;;;;13.48;11.68;;;;;;;23.77;66.70;97260.59;5031427;28;20210;-62
2021/06/09 08:56:11;;;;;;;14.50;12.95;;;;;;;23.25;68.05;97259.97;5031226;28;20186;-62
2021/06/09 08:58:37;;;;;;;16.00;13.32;;;;;;;23.10;68.91;97262.91;5013709;28;20186;-62
2021/06/09 09:01:04;;;;;;;16.40;13.10;;;;;;;22.92;70.00;97258.41;5030603;28;20194;-62
2021/06/09 09:03:30;;;;;;;16.48;13.77;;;;;;;22.86;69.65;97257.72;5031389;28;20274;-62
2021/06/09 09:05:55;;;;;;;16.33;14.35;;;;;;;22.84;70.19;97259.09;5030705;28;20277;-62
2021/06/09 09:08:21;;;;;;;16.02;14.32;;;;;;;22.84;70.38;97262.56;5031194;28;20179;-62
2021/06/09 09:10:46;;;;;;;19.92;14.77;;;;;;;22.26;71.84;97257.56;5030677;28;20325;-63
2021/06/09 09:13:12;;;;;;;18.60;13.70;;;;;;;22.64;71.74;97258.31;5031138;28;20183;-65
2021/06/09 09:15:38;;;;;;;16.50;14.45;;;;;;;23.43;68.05;97255.59;5030041;28;20206;-62
2021/06/09 09:18:05;;;;;;;17.38;13.60;;;;;;;24.21;65.48;97251.88;5012090;28;20194;-62
2021/06/09 09:20:33;;;;;;;18.10;14.50;;;;;;;24.34;64.97;97256.41;5030543;28;20190;-62
2021/06/09 09:23:01;;;;;;;18.85;14.68;;;;;;;23.99;65.41;97256.09;5029937;28;20190;-62
2021/06/09 09:25:31;;;;;;;16.75;13.68;;;;;;;24.01;65.92;97255.78;5030102;28;20221;-63
2021/06/09 09:28:02;;;;;;;15.60;12.85;;;;;;;23.24;68.27;97260.28;5011960;28;20189;-62
2021/06/09 09:30:33;;;;;;;14.27;12.70;;;;;;;23.27;69.19;97257.78;5030513;28;20223;-60
2021/06/09 09:33:05;;;;;;;13.65;11.73;;;;;;;23.51;68.78;97258.44;5029786;28;20291;-63
2021/06/09 09:35:38;;;;;;;16.50;13.05;;;;;;;23.10;69.69;97262.91;5029806;28;20628;-62
2021/06/09 09:38:31;;;;;;;13.52;11.70;;;;;;;23.46;68.61;97263.84;5030129;28;20364;-62
2021/06/09 09:41:14;;;;;;;15.50;12.70;;;;;;;23.29;68.90;97265.53;5027370;28;20186;-63
2021/06/09 09:43:49;;;;;;;13.93;11.52;;;;;;;22.97;70.13;97263.69;5029777;28;20209;-62
2021/06/09 09:46:24;;;;;;;16.08;13.73;;;;;;;22.54;71.31;97266.50;5030351;28;20185;-62
2021/06/09 09:49:09;;;;;;;17.08;12.95;;;;;;;22.55;71.38;97272.63;5005796;28;20277;-62
2021/06/09 09:51:59;;;;;;;17.33;14.07;;;;;;;22.36;71.85;97265.44;5030830;28;20186;-62
2021/06/09 09:54:33;;;;;;;16.90;13.23;;;;;;;22.51;71.32;97260.97;5030120;28;20303;-62
2021/06/09 09:57:00;;;;;;;15.07;13.38;;;;;;;22.46;73.23;97256.47;5030270;28;20178;-62
2021/06/09 09:59:27;;;;;;;17.80;14.32;;;;;;;22.43;71.55;97254.38;5029927;28;20201;-63
2021/06/09 10:01:54;;;;;;;15.45;13.05;;;;;;;22.39;72.34;97254.19;5011881;28;20611;-63
2021/06/09 10:04:29;;;;;;;15.82;13.13;;;;;;;22.39;72.84;97254.19;5030306;28;20561;-62
2021/06/09 10:06:56;;;;;;;16.67;13.45;;;;;;;22.49;71.72;97260.44;5030002;28;20623;-62
2021/06/09 10:09:35;;;;;;;13.00;11.70;;;;;;;22.32;71.35;97252.94;5029937;28;20280;-62
2021/06/09 10:12:07;;;;;;;15.38;13.77;;;;;;;21.98;71.06;97250.50;5029530;28;20202;-62
2021/06/09 10:14:48;;;;;;;16.75;14.68;;;;;;;21.83;72.49;97259.47;5012373;28;20208;-62
2021/06/09 10:17:18;;;;;;;16.80;14.32;;;;;;;22.00;71.88;97256.34;5012467;28;20186;-63
2021/06/09 10:19:46;;;;;;;14.52;12.98;;;;;;;22.24;72.58;97256.25;5030307;28;20545;-62
2021/06/09 10:22:19;;;;;;;15.00;13.30;;;;;;;22.43;71.06;97251.72;5029923;28;20240;-62
2021/06/09 10:24:56;;;;;;;17.08;13.95;;;;;;;22.39;70.80;97248.03;5029216;28;20212;-62
2021/06/09 10:27:51;;;;;;;16.13;13.50;;;;;;;22.48;72.25;97258.84;5030695;28;20186;-62
2021/06/09 10:30:17;;;;;;;15.32;12.98;;;;;;;22.59;70.67;97254.94;5030005;28;20282;-62
2021/06/09 10:32:47;;;;;;;17.45;14.02;;;;;;;22.46;70.18;97255.69;5027513;28;20277;-62
2021/06/09 10:35:12;;;;;;;15.98;14.20;;;;;;;22.32;72.84;97250.28;5029602;28;20217;-62
2021/06/09 10:37:38;;;;;;;17.55;15.55;;;;;;;22.05;72.47;97250.16;5030486;28;20270;-62
2021/06/09 10:40:05;;;;;;;16.33;14.10;;;;;;;22.42;70.83;97252.00;5032178;28;20201;-62
2021/06/09 10:42:32;;;;;;;15.63;12.95;;;;;;;22.57;70.24;97249.88;5033998;28;20190;-62
2021/06/09 10:44:58;;;;;;;16.23;13.25;;;;;;;22.21;71.15;97249.63;5033360;28;20214;-62
2021/06/09 10:47:31;;;;;;;14.30;12.80;;;;;;;22.23;70.76;97234.13;5033279;28;20189;-62
2021/06/09 10:49:58;;;;;;;14.15;12.48;;;;;;;22.46;69.27;97237.75;5033135;28;20328;-63
2021/06/09 10:52:24;;;;;;;13.57;12.18;;;;;;;22.54;68.68;97242.44;5016054;28;20668;-62
2021/06/09 10:54:49;;;;;;;13.75;12.13;;;;;;;22.71;68.15;97233.88;5015114;28;20329;-63
2021/06/09 10:57:16;;;;;;;15.15;12.65;;;;;;;22.80;65.66;97240.97;5033731;28;20183;-63
2021/06/09 10:59:42;;;;;;;10.85;9.75;;;;;;;22.99;62.80;97235.56;5032463;28;20186;-63
2021/06/09 11:02:13;;;;;;;16.75;12.40;;;;;;;22.48;66.30;97234.81;5032518;28;20782;-63
2021/06/09 11:04:47;;;;;;;19.08;12.77;;;;;;;22.71;67.70;97232.03;5015516;28;20655;-63
2021/06/09 11:07:28;;;;;;;14.82;12.48;;;;;;;23.07;66.60;97226.84;5033732;28;20197;-63
2021/06/09 11:09:53;;;;;;;12.27;10.98;;;;;;;23.31;64.20;97220.53;5033071;28;20178;-63
2021/06/09 11:12:37;;;;;;;12.82;11.43;;;;;;;23.44;65.03;97223.22;5033706;28;20187;-63
2021/06/09 11:15:15;;;;;;;12.18;10.88;;;;;;;23.46;62.38;97228.31;5032444;28;20706;-63
2021/06/09 11:17:47;;;;;;;11.43;9.68;;;;;;;23.49;62.40;97225.03;5033155;28;20182;-63
2021/06/09 11:20:17;;;;;;;15.07;9.90;;;;;;;23.32;60.42;97225.59;5033120;28;20186;-63
2021/06/09 11:22:46;;;;;;;10.85;9.35;;;;;;;23.30;60.98;97218.94;5032550;28;20568;-63
2021/06/09 11:25:20;;;;;;;13.13;9.40;;;;;;;23.21;61.52;97213.50;5032467;28;20190;-63